createdAt,value
2018-04-17T00:00:41.776Z,66.33
2018-04-17T00:05:45.554Z,99.63
2018-04-17T00:10:48.508Z,85.17
2018-04-17T00:15:52.519Z,65.83
2018-04-17T00:20:55.501Z,88.60
2018-04-17T00:25:59.137Z,156.67
2018-04-17T00:31:03.384Z,176.63
2018-04-17T00:36:08.019Z,115.00
2018-04-17T00:41:10.854Z,152.03
2018-04-17T00:46:14.210Z,202.30
2018-04-17T00:51:17.003Z,179.43
2018-04-17T00:56:21.099Z,129.17
2018-04-17T01:01:25.857Z,119.70
2018-04-17T01:06:28.962Z,170.73
2018-04-17T01:11:32.247Z,177.50
2018-04-17T01:16:35.307Z,152.37
2018-04-17T01:21:38.166Z,153.40
2018-04-17T01:26:42.646Z,37.73
2018-04-17T01:31:45.841Z,62.27
2018-04-17T01:36:49.883Z,37.67
2018-04-17T01:41:53.208Z,20.97
2018-04-17T01:46:56.600Z,29.00
2018-04-17T01:51:59.476Z,21.37
2018-04-17T01:57:03.007Z,27.40
2018-04-17T02:02:07.215Z,32.87
2018-04-17T02:07:10.790Z,31.20
2018-04-17T02:12:13.907Z,21.73
2018-04-17T02:17:17.778Z,27.80
2018-04-17T02:22:21.672Z,23.33
2018-04-17T02:27:24.640Z,19.27
2018-04-17T02:32:27.464Z,9.60
2018-04-17T02:37:30.265Z,33.87
2018-04-17T02:42:33.999Z,33.37
2018-04-17T02:47:36.963Z,59.53
2018-04-17T02:52:40.392Z,38.50
2018-04-17T02:57:43.435Z,34.20
2018-04-17T03:02:46.424Z,73.97
2018-04-17T03:07:49.180Z,61.50
2018-04-17T03:12:51.965Z,61.73
2018-04-17T03:17:55.544Z,54.50
2018-04-17T03:22:58.378Z,11.10
2018-04-17T03:28:01.915Z,32.07
2018-04-17T03:33:05.567Z,46.37
2018-04-17T03:38:08.341Z,14.07
2018-04-17T03:43:11.111Z,24.53
2018-04-17T03:48:16.424Z,25.20
2018-04-17T03:53:19.206Z,14.10
2018-04-17T03:58:21.964Z,19.93
2018-04-17T04:03:24.952Z,7.53
2018-04-17T04:08:27.711Z,7.83
2018-04-17T04:13:30.487Z,20.90
2018-04-17T04:20:48.693Z,13.17
2018-04-17T04:25:53.971Z,19.83
2018-04-17T04:30:57.704Z,16.77
2018-04-17T04:36:01.126Z,35.80
2018-04-17T04:41:04.208Z,58.37
2018-04-17T04:46:06.981Z,29.93
2018-04-17T04:51:10.102Z,8.30
2018-04-17T04:56:13.012Z,13.60
2018-04-17T05:01:16.007Z,12.13
2018-04-17T05:06:18.762Z,29.97
2018-04-17T05:11:23.179Z,18.30
2018-04-17T05:16:26.102Z,28.30
2018-04-17T05:21:28.947Z,20.80
2018-04-17T05:26:32.150Z,11.90
2018-04-17T05:31:34.962Z,19.20
2018-04-17T05:36:48.755Z,19.70
2018-04-17T05:41:54.099Z,29.60
2018-04-17T05:46:57.460Z,35.67
2018-04-17T05:52:00.750Z,26.90
2018-04-17T05:57:03.792Z,56.27
2018-04-17T06:02:07.524Z,42.80
2018-04-17T06:07:11.233Z,43.77
2018-04-17T06:12:13.975Z,39.20
2018-04-17T06:17:16.997Z,30.30
2018-04-17T06:22:20.078Z,58.30
2018-04-17T06:27:23.108Z,58.93
2018-04-17T06:32:25.959Z,38.70
2018-04-17T06:37:29.222Z,43.70
2018-04-17T06:42:32.267Z,42.50
2018-04-17T06:47:35.656Z,56.30
2018-04-17T06:52:38.936Z,40.50
2018-04-17T06:57:41.711Z,71.00
2018-04-17T07:02:45.124Z,98.13
2018-04-17T07:07:48.323Z,81.87
2018-04-17T07:12:51.515Z,78.73
2018-04-17T07:17:54.266Z,79.37
2018-04-17T07:22:57.272Z,71.50
2018-04-17T07:28:00.988Z,78.90
2018-04-17T07:33:03.747Z,69.77
2018-04-17T07:38:06.602Z,66.53
2018-04-17T07:43:09.787Z,53.83
2018-04-17T07:48:21.548Z,60.70
2018-04-17T07:53:24.930Z,59.53
2018-04-17T07:58:27.736Z,58.23
2018-04-17T08:03:30.474Z,42.43
2018-04-17T08:08:33.285Z,51.57
2018-04-17T08:13:37.541Z,47.57
2018-04-17T08:18:40.306Z,46.20
2018-04-17T08:23:43.371Z,57.90
2018-04-17T08:28:46.148Z,51.33
2018-04-17T08:33:48.915Z,46.67
2018-04-17T08:38:52.674Z,66.73
2018-04-17T08:43:56.214Z,48.17
2018-04-17T08:48:58.714Z,42.73
2018-04-17T08:54:01.468Z,43.73
2018-04-17T08:59:04.246Z,32.43
2018-04-17T09:04:07.324Z,38.63
2018-04-17T09:09:10.210Z,51.10
2018-04-17T09:14:13.162Z,52.00
2018-04-17T09:19:16.725Z,27.20
2018-04-17T09:24:31.035Z,31.53
2018-04-17T09:29:36.543Z,39.23
2018-04-17T09:34:39.535Z,36.90
2018-04-17T09:39:43.692Z,25.37
2018-04-17T09:44:51.777Z,37.03
2018-04-17T09:49:55.607Z,29.13
2018-04-17T09:54:59.511Z,27.80
2018-04-17T10:00:02.354Z,30.17
2018-04-17T10:05:05.143Z,31.70
2018-04-17T10:10:08.210Z,19.73
2018-04-17T10:15:15.124Z,22.17
2018-04-17T10:20:18.475Z,24.07
2018-04-17T10:25:21.328Z,20.40
2018-04-17T10:30:24.188Z,25.98
2018-04-17T10:35:26.927Z,26.80
2018-04-17T10:40:30.058Z,23.70
2018-04-17T10:45:32.819Z,14.53
2018-04-17T10:50:35.571Z,19.90
2018-04-17T10:55:38.427Z,30.27
2018-04-17T11:00:41.201Z,22.30
2018-04-17T11:05:44.017Z,14.93
2018-04-17T11:10:46.799Z,20.00
2018-04-17T11:15:49.850Z,17.40
2018-04-17T11:20:52.804Z,26.40
2018-04-17T11:25:55.602Z,27.20
2018-04-17T11:30:58.439Z,28.63
2018-04-17T11:36:01.284Z,17.33
2018-04-17T11:41:04.143Z,20.60
2018-04-17T11:46:07.215Z,30.77
2018-04-17T11:51:09.997Z,22.53
2018-04-17T11:56:12.808Z,25.83
2018-04-17T12:01:15.539Z,16.60
2018-04-17T12:06:18.445Z,19.80
2018-04-17T12:11:21.231Z,24.60
2018-04-17T12:16:24.330Z,20.20
2018-04-17T12:21:29.355Z,20.00
2018-04-17T12:26:36.710Z,23.97
2018-04-17T12:31:40.092Z,18.67
2018-04-17T12:36:42.877Z,23.63
2018-04-17T12:41:45.877Z,21.00
2018-04-17T12:46:48.655Z,23.60
2018-04-17T12:51:51.424Z,23.23
2018-04-17T12:56:54.468Z,15.40
2018-04-17T13:01:57.230Z,25.13
2018-04-17T13:07:03.377Z,20.73
2018-04-17T13:12:06.851Z,20.93
2018-04-17T13:17:09.631Z,20.00
2018-04-17T13:22:15.755Z,23.63
2018-04-17T13:27:18.620Z,18.23
2018-04-17T13:32:26.080Z,19.87
2018-04-17T13:37:29.620Z,24.20
2018-04-17T13:42:32.703Z,23.57
2018-04-17T13:47:35.491Z,25.03
2018-04-17T13:52:38.658Z,31.73
2018-04-17T13:57:41.694Z,32.13
2018-04-17T14:02:44.516Z,24.63
2018-04-17T14:07:49.839Z,28.63
2018-04-17T14:12:52.631Z,26.53
2018-04-17T14:17:55.421Z,31.97
2018-04-17T14:22:58.743Z,29.00
2018-04-17T14:28:01.529Z,32.93
2018-04-17T14:33:04.380Z,29.00
2018-04-17T14:38:08.601Z,27.07
2018-04-17T14:43:12.182Z,22.93
2018-04-17T14:48:15.202Z,23.63
2018-04-17T14:53:21.391Z,26.03
2018-04-17T14:58:25.115Z,23.67
2018-04-17T15:03:27.918Z,23.40
2018-04-17T15:08:30.696Z,22.33
2018-04-17T15:13:33.488Z,27.20
2018-04-17T15:18:36.610Z,26.57
2018-04-17T15:23:39.428Z,25.33
2018-04-17T15:28:42.248Z,25.43
2018-04-17T15:33:45.014Z,21.30
2018-04-17T15:38:47.512Z,18.07
2018-04-17T15:43:50.914Z,18.37
2018-04-17T15:48:55.151Z,32.23
2018-04-17T15:53:58.034Z,18.27
2018-04-17T15:59:01.322Z,24.13
2018-04-17T16:04:04.828Z,20.73
2018-04-17T16:09:07.998Z,31.60
2018-04-17T16:14:11.173Z,21.00
2018-04-17T16:19:14.497Z,24.30
2018-04-17T16:24:17.504Z,23.03
2018-04-17T16:29:21.138Z,24.33
2018-04-17T16:34:24.293Z,33.10
2018-04-17T16:39:28.227Z,20.90
2018-04-17T16:44:31.387Z,25.67
2018-04-17T16:49:35.071Z,44.70
2018-04-17T16:54:38.935Z,20.30
2018-04-17T16:59:46.334Z,33.60
2018-04-17T17:04:51.049Z,18.30
2018-04-17T17:09:54.003Z,23.57
2018-04-17T17:14:57.081Z,21.07
2018-04-17T17:20:00.109Z,26.03
2018-04-17T17:25:03.497Z,17.60
2018-04-17T17:30:06.574Z,31.40
2018-04-17T17:35:09.741Z,27.20
2018-04-17T17:40:12.790Z,32.30
2018-04-17T17:45:16.159Z,21.97
2018-04-17T17:50:19.343Z,18.40
2018-04-17T17:55:23.052Z,34.67
2018-04-17T18:00:34.497Z,27.00
2018-04-17T18:05:38.614Z,17.97
2018-04-17T18:10:45.221Z,17.93
2018-04-17T18:15:48.742Z,21.63
2018-04-17T18:20:51.871Z,19.87
2018-04-17T18:25:55.026Z,23.50
2018-04-17T18:30:58.165Z,17.30
2018-04-17T18:36:04.210Z,18.13
2018-04-17T18:41:07.350Z,22.33
2018-04-17T18:46:11.466Z,10.50
2018-04-17T18:51:14.784Z,16.43
2018-04-17T18:56:18.031Z,23.53
2018-04-17T19:01:22.027Z,26.47
2018-04-17T19:06:25.289Z,13.03
2018-04-17T19:11:29.759Z,22.03
2018-04-17T19:16:33.919Z,20.83
2018-04-17T19:21:37.150Z,22.27
2018-04-17T19:26:40.333Z,14.67
2018-04-17T19:31:44.424Z,22.17
2018-04-17T19:36:47.592Z,28.03
2018-04-17T19:41:51.666Z,30.80
2018-04-17T19:46:55.994Z,18.80
2018-04-17T19:51:59.286Z,17.17
2018-04-17T19:57:02.750Z,14.90
2018-04-17T20:02:06.027Z,19.83
2018-04-17T20:07:09.268Z,21.60
2018-04-17T20:12:12.545Z,13.40
2018-04-17T20:17:15.879Z,18.97
2018-04-17T20:22:19.026Z,24.07
2018-04-17T20:27:22.805Z,18.90
2018-04-17T20:32:26.364Z,24.30
2018-04-17T20:37:30.433Z,19.97
2018-04-17T20:42:33.552Z,13.73
2018-04-17T20:47:37.096Z,24.93
2018-04-17T20:52:40.287Z,25.67
2018-04-17T20:57:43.528Z,21.10
2018-04-17T21:02:47.165Z,23.23
2018-04-17T21:07:50.454Z,25.70
2018-04-17T21:12:53.657Z,21.77
2018-04-17T21:17:56.963Z,25.33
2018-04-17T21:22:59.868Z,17.33
2018-04-17T21:28:02.724Z,22.53
2018-04-17T21:33:05.730Z,33.50
2018-04-17T21:38:08.556Z,36.63
2018-04-17T21:43:11.446Z,20.03
2018-04-17T21:48:14.910Z,30.07
2018-04-17T21:53:17.718Z,27.03
2018-04-17T21:58:20.547Z,16.30
2018-04-17T22:03:23.560Z,36.87
2018-04-17T22:08:26.342Z,19.37
2018-04-17T22:13:29.143Z,21.10
2018-04-17T22:18:32.317Z,22.30
2018-04-17T22:23:35.200Z,44.63
2018-04-17T22:28:38.114Z,27.07
2018-04-17T22:33:41.018Z,29.07
2018-04-17T22:38:43.864Z,16.00
2018-04-17T22:43:46.752Z,15.57
2018-04-17T22:48:49.703Z,22.93
2018-04-17T22:53:52.528Z,13.90
2018-04-17T22:58:55.397Z,19.93
2018-04-17T23:03:58.380Z,27.03
2018-04-17T23:09:01.139Z,23.17
2018-04-17T23:15:06.978Z,19.83
2018-04-17T23:20:09.950Z,23.93
2018-04-17T23:25:12.731Z,22.67
2018-04-17T23:30:15.785Z,31.50
2018-04-17T23:36:21.819Z,22.93
2018-04-17T23:41:24.575Z,24.17
2018-04-17T23:46:27.604Z,28.10
2018-04-17T23:51:31.039Z,26.07
2018-04-17T23:56:33.905Z,18.83
